< < Back
Terminal Aerodrome Forecast


Current Version              Previous Versions:   1  2  3  4  5  6  7  8  9  

Terminal Aerodrome Forecast

506
FTUS42 KFFC 172100 AAA
TAFFTY
TAF AMD
KFTY 172148Z 1722/1818 10008KT P6SM SCT050 BKN250
     FM180200 09007KT P6SM BKN035
     FM181000 07007KT P6SM BKN025 PROB30 1811/1815 -SHRA BKN015
     FM181500 07010KT P6SM SHRA OVC015=

Latest METAR

150
SAUS70 KWBC 180300 RRB
MTRFTY
METAR KFTY 180253Z 08007KT 10SM OVC049 16/03 A3030 RMK AO2 SLP259
T01610033 58002


USA.gov is the U.S. government's official web portal to all federal, state and local government web resources and services.